sensor_id;sensor_type;location;lat;lon;timestamp;P1;durP1;ratioP1;P2;durP2;ratioP2
43345;SDS011;28937;51.160;4.146;2023-07-16T00:02:04;5.65;;;1.73;;
43345;SDS011;28937;51.160;4.146;2023-07-16T00:04:31;5.93;;;1.60;;
43345;SDS011;28937;51.160;4.146;2023-07-16T00:06:57;5.10;;;2.17;;
43345;SDS011;28937;51.160;4.146;2023-07-16T00:09:24;5.82;;;1.77;;
43345;SDS011;28937;51.160;4.146;2023-07-16T00:11:50;6.95;;;2.15;;
43345;SDS011;28937;51.160;4.146;2023-07-16T00:14:15;6.30;;;1.80;;
43345;SDS011;28937;51.160;4.146;2023-07-16T00:16:42;8.95;;;2.17;;
43345;SDS011;28937;51.160;4.146;2023-07-16T00:19:10;6.47;;;2.00;;
43345;SDS011;28937;51.160;4.146;2023-07-16T00:21:36;9.30;;;2.00;;
43345;SDS011;28937;51.160;4.146;2023-07-16T00:24:02;8.88;;;2.25;;
43345;SDS011;28937;51.160;4.146;2023-07-16T00:26:28;4.90;;;1.80;;
43345;SDS011;28937;51.160;4.146;2023-07-16T00:28:53;6.20;;;1.73;;
43345;SDS011;28937;51.160;4.146;2023-07-16T00:31:19;7.72;;;2.60;;
43345;SDS011;28937;51.160;4.146;2023-07-16T00:33:45;5.93;;;1.77;;
43345;SDS011;28937;51.160;4.146;2023-07-16T00:36:10;4.63;;;1.85;;
43345;SDS011;28937;51.160;4.146;2023-07-16T00:38:36;8.52;;;2.30;;
43345;SDS011;28937;51.160;4.146;2023-07-16T00:41:02;6.45;;;1.73;;
43345;SDS011;28937;51.160;4.146;2023-07-16T00:43:27;8.48;;;2.20;;
43345;SDS011;28937;51.160;4.146;2023-07-16T00:45:53;8.48;;;2.30;;
43345;SDS011;28937;51.160;4.146;2023-07-16T00:48:19;7.38;;;2.10;;
43345;SDS011;28937;51.160;4.146;2023-07-16T00:50:45;5.07;;;2.08;;
43345;SDS011;28937;51.160;4.146;2023-07-16T00:53:13;11.93;;;2.72;;
43345;SDS011;28937;51.160;4.146;2023-07-16T00:55:39;6.53;;;2.30;;
43345;SDS011;28937;51.160;4.146;2023-07-16T00:58:05;8.52;;;2.38;;
43345;SDS011;28937;51.160;4.146;2023-07-16T01:00:35;5.07;;;2.28;;
43345;SDS011;28937;51.160;4.146;2023-07-16T01:03:02;5.53;;;2.10;;
43345;SDS011;28937;51.160;4.146;2023-07-16T01:05:39;8.43;;;2.58;;
43345;SDS011;28937;51.160;4.146;2023-07-16T01:08:12;5.70;;;2.10;;
43345;SDS011;28937;51.160;4.146;2023-07-16T01:10:39;8.02;;;2.60;;
43345;SDS011;28937;51.160;4.146;2023-07-16T01:13:06;8.95;;;2.22;;
43345;SDS011;28937;51.160;4.146;2023-07-16T01:15:32;7.30;;;2.42;;
43345;SDS011;28937;51.160;4.146;2023-07-16T01:17:58;7.50;;;2.40;;
43345;SDS011;28937;51.160;4.146;2023-07-16T01:20:24;7.03;;;2.13;;
43345;SDS011;28937;51.160;4.146;2023-07-16T01:25:48;6.78;;;2.20;;
43345;SDS011;28937;51.160;4.146;2023-07-16T01:28:52;6.57;;;2.42;;
43345;SDS011;28937;51.160;4.146;2023-07-16T01:31:19;5.05;;;1.83;;
43345;SDS011;28937;51.160;4.146;2023-07-16T01:33:47;5.47;;;2.22;;
43345;SDS011;28937;51.160;4.146;2023-07-16T01:36:14;6.75;;;2.75;;
43345;SDS011;28937;51.160;4.146;2023-07-16T01:38:41;6.25;;;2.25;;
43345;SDS011;28937;51.160;4.146;2023-07-16T01:41:07;6.82;;;1.92;;
43345;SDS011;28937;51.160;4.146;2023-07-16T01:43:32;5.57;;;2.20;;
43345;SDS011;28937;51.160;4.146;2023-07-16T01:45:58;8.00;;;2.47;;
43345;SDS011;28937;51.160;4.146;2023-07-16T01:48:30;6.10;;;2.25;;
43345;SDS011;28937;51.160;4.146;2023-07-16T01:50:59;4.78;;;1.52;;
43345;SDS011;28937;51.160;4.146;2023-07-16T01:53:25;3.45;;;1.65;;
43345;SDS011;28937;51.160;4.146;2023-07-16T01:55:50;7.43;;;2.70;;
43345;SDS011;28937;51.160;4.146;2023-07-16T01:58:16;6.05;;;1.98;;
43345;SDS011;28937;51.160;4.146;2023-07-16T02:00:42;4.90;;;2.10;;
43345;SDS011;28937;51.160;4.146;2023-07-16T02:03:08;7.30;;;2.45;;
43345;SDS011;28937;51.160;4.146;2023-07-16T02:05:33;7.38;;;2.17;;
43345;SDS011;28937;51.160;4.146;2023-07-16T02:07:59;5.82;;;2.38;;
43345;SDS011;28937;51.160;4.146;2023-07-16T02:10:25;7.80;;;2.70;;
43345;SDS011;28937;51.160;4.146;2023-07-16T02:12:51;5.57;;;2.47;;
43345;SDS011;28937;51.160;4.146;2023-07-16T02:15:16;5.95;;;2.38;;
43345;SDS011;28937;51.160;4.146;2023-07-16T02:17:43;5.05;;;2.10;;
43345;SDS011;28937;51.160;4.146;2023-07-16T02:20:09;5.03;;;2.58;;
43345;SDS011;28937;51.160;4.146;2023-07-16T02:22:37;4.82;;;2.25;;
43345;SDS011;28937;51.160;4.146;2023-07-16T02:25:03;6.85;;;2.67;;
43345;SDS011;28937;51.160;4.146;2023-07-16T02:27:29;7.18;;;2.30;;
43345;SDS011;28937;51.160;4.146;2023-07-16T02:29:55;8.20;;;2.67;;
43345;SDS011;28937;51.160;4.146;2023-07-16T02:32:21;6.50;;;2.63;;
43345;SDS011;28937;51.160;4.146;2023-07-16T02:34:46;5.28;;;2.97;;
43345;SDS011;28937;51.160;4.146;2023-07-16T02:37:12;5.30;;;2.90;;
43345;SDS011;28937;51.160;4.146;2023-07-16T02:39:38;5.65;;;3.00;;
43345;SDS011;28937;51.160;4.146;2023-07-16T02:42:04;7.28;;;2.75;;
43345;SDS011;28937;51.160;4.146;2023-07-16T02:44:30;6.13;;;2.47;;
43345;SDS011;28937;51.160;4.146;2023-07-16T02:46:56;6.55;;;3.33;;
43345;SDS011;28937;51.160;4.146;2023-07-16T02:49:21;8.23;;;3.28;;
43345;SDS011;28937;51.160;4.146;2023-07-16T02:51:47;8.30;;;2.90;;
43345;SDS011;28937;51.160;4.146;2023-07-16T02:54:12;6.05;;;2.95;;
43345;SDS011;28937;51.160;4.146;2023-07-16T02:56:38;6.05;;;3.05;;
43345;SDS011;28937;51.160;4.146;2023-07-16T02:59:04;5.40;;;2.95;;
43345;SDS011;28937;51.160;4.146;2023-07-16T03:01:29;9.32;;;3.53;;
43345;SDS011;28937;51.160;4.146;2023-07-16T03:03:55;7.45;;;3.30;;
43345;SDS011;28937;51.160;4.146;2023-07-16T03:06:21;5.57;;;3.00;;
43345;SDS011;28937;51.160;4.146;2023-07-16T03:08:46;6.40;;;2.92;;
43345;SDS011;28937;51.160;4.146;2023-07-16T03:11:13;4.63;;;2.97;;
43345;SDS011;28937;51.160;4.146;2023-07-16T03:13:39;7.03;;;3.38;;
43345;SDS011;28937;51.160;4.146;2023-07-16T03:16:04;6.90;;;3.78;;
43345;SDS011;28937;51.160;4.146;2023-07-16T03:18:30;9.23;;;3.20;;
43345;SDS011;28937;51.160;4.146;2023-07-16T03:20:57;5.05;;;3.03;;
43345;SDS011;28937;51.160;4.146;2023-07-16T03:23:23;6.22;;;3.08;;
43345;SDS011;28937;51.160;4.146;2023-07-16T03:25:49;6.47;;;3.03;;
43345;SDS011;28937;51.160;4.146;2023-07-16T03:28:15;5.57;;;3.15;;
43345;SDS011;28937;51.160;4.146;2023-07-16T03:30:44;7.00;;;3.15;;
43345;SDS011;28937;51.160;4.146;2023-07-16T03:33:11;5.20;;;3.10;;
43345;SDS011;28937;51.160;4.146;2023-07-16T03:35:39;6.18;;;3.22;;
43345;SDS011;28937;51.160;4.146;2023-07-16T03:38:07;8.32;;;3.33;;
43345;SDS011;28937;51.160;4.146;2023-07-16T03:40:32;5.93;;;3.20;;
43345;SDS011;28937;51.160;4.146;2023-07-16T03:42:58;5.20;;;2.80;;
43345;SDS011;28937;51.160;4.146;2023-07-16T03:45:24;7.07;;;3.53;;
43345;SDS011;28937;51.160;4.146;2023-07-16T03:47:50;7.75;;;3.25;;
43345;SDS011;28937;51.160;4.146;2023-07-16T03:50:15;5.00;;;3.00;;
43345;SDS011;28937;51.160;4.146;2023-07-16T03:52:41;6.22;;;3.58;;
43345;SDS011;28937;51.160;4.146;2023-07-16T03:55:08;7.93;;;3.55;;
43345;SDS011;28937;51.160;4.146;2023-07-16T03:57:34;7.45;;;3.90;;
43345;SDS011;28937;51.160;4.146;2023-07-16T04:00:00;5.15;;;3.60;;
43345;SDS011;28937;51.160;4.146;2023-07-16T04:02:26;6.55;;;3.55;;
43345;SDS011;28937;51.160;4.146;2023-07-16T04:04:52;8.73;;;4.15;;
43345;SDS011;28937;51.160;4.146;2023-07-16T04:07:18;5.70;;;3.20;;
43345;SDS011;28937;51.160;4.146;2023-07-16T04:09:43;7.47;;;3.70;;
43345;SDS011;28937;51.160;4.146;2023-07-16T04:12:09;6.60;;;3.55;;
43345;SDS011;28937;51.160;4.146;2023-07-16T04:14:34;8.73;;;3.75;;
43345;SDS011;28937;51.160;4.146;2023-07-16T04:17:00;7.03;;;3.75;;
43345;SDS011;28937;51.160;4.146;2023-07-16T04:19:25;7.50;;;4.15;;
43345;SDS011;28937;51.160;4.146;2023-07-16T04:21:51;7.80;;;3.95;;
43345;SDS011;28937;51.160;4.146;2023-07-16T04:24:16;6.50;;;3.75;;
43345;SDS011;28937;51.160;4.146;2023-07-16T04:26:42;8.65;;;4.85;;
43345;SDS011;28937;51.160;4.146;2023-07-16T04:29:07;9.00;;;4.40;;
43345;SDS011;28937;51.160;4.146;2023-07-16T04:31:33;6.15;;;4.28;;
43345;SDS011;28937;51.160;4.146;2023-07-16T04:33:59;8.45;;;4.00;;
43345;SDS011;28937;51.160;4.146;2023-07-16T04:36:24;6.43;;;3.80;;
43345;SDS011;28937;51.160;4.146;2023-07-16T04:38:50;8.95;;;3.92;;
43345;SDS011;28937;51.160;4.146;2023-07-16T04:41:16;8.20;;;4.47;;
43345;SDS011;28937;51.160;4.146;2023-07-16T04:43:41;8.13;;;4.68;;
43345;SDS011;28937;51.160;4.146;2023-07-16T04:46:07;7.57;;;4.47;;
43345;SDS011;28937;51.160;4.146;2023-07-16T04:48:32;10.20;;;5.28;;
43345;SDS011;28937;51.160;4.146;2023-07-16T04:50:58;11.00;;;4.57;;
43345;SDS011;28937;51.160;4.146;2023-07-16T04:53:24;7.72;;;4.72;;
43345;SDS011;28937;51.160;4.146;2023-07-16T04:55:50;8.35;;;4.40;;
43345;SDS011;28937;51.160;4.146;2023-07-16T04:58:16;7.47;;;4.72;;
43345;SDS011;28937;51.160;4.146;2023-07-16T05:00:42;8.10;;;4.63;;
43345;SDS011;28937;51.160;4.146;2023-07-16T05:03:07;9.02;;;4.35;;
43345;SDS011;28937;51.160;4.146;2023-07-16T05:05:33;7.43;;;4.20;;
43345;SDS011;28937;51.160;4.146;2023-07-16T05:08:00;8.05;;;4.38;;
43345;SDS011;28937;51.160;4.146;2023-07-16T05:10:26;8.45;;;4.82;;
43345;SDS011;28937;51.160;4.146;2023-07-16T05:12:52;8.38;;;4.40;;
43345;SDS011;28937;51.160;4.146;2023-07-16T05:15:17;5.68;;;4.05;;
43345;SDS011;28937;51.160;4.146;2023-07-16T05:17:43;7.85;;;4.60;;
43345;SDS011;28937;51.160;4.146;2023-07-16T05:20:09;6.53;;;4.28;;
43345;SDS011;28937;51.160;4.146;2023-07-16T05:22:35;9.35;;;4.63;;
43345;SDS011;28937;51.160;4.146;2023-07-16T05:25:01;7.70;;;5.25;;
43345;SDS011;28937;51.160;4.146;2023-07-16T05:27:27;6.97;;;4.38;;
43345;SDS011;28937;51.160;4.146;2023-07-16T05:29:53;9.15;;;5.55;;
43345;SDS011;28937;51.160;4.146;2023-07-16T05:32:18;7.78;;;4.72;;
43345;SDS011;28937;51.160;4.146;2023-07-16T05:34:47;6.85;;;4.65;;
43345;SDS011;28937;51.160;4.146;2023-07-16T05:37:13;6.53;;;4.75;;
43345;SDS011;28937;51.160;4.146;2023-07-16T05:39:38;8.20;;;4.53;;
43345;SDS011;28937;51.160;4.146;2023-07-16T05:42:04;7.82;;;5.53;;
43345;SDS011;28937;51.160;4.146;2023-07-16T05:44:30;10.75;;;4.63;;
43345;SDS011;28937;51.160;4.146;2023-07-16T05:46:56;8.50;;;4.85;;
43345;SDS011;28937;51.160;4.146;2023-07-16T05:49:22;10.23;;;5.40;;
43345;SDS011;28937;51.160;4.146;2023-07-16T05:51:48;7.65;;;5.47;;
43345;SDS011;28937;51.160;4.146;2023-07-16T05:54:13;7.22;;;4.30;;
43345;SDS011;28937;51.160;4.146;2023-07-16T05:56:39;8.65;;;4.50;;
43345;SDS011;28937;51.160;4.146;2023-07-16T05:59:05;8.20;;;5.13;;
43345;SDS011;28937;51.160;4.146;2023-07-16T06:01:30;6.63;;;4.43;;
43345;SDS011;28937;51.160;4.146;2023-07-16T06:03:56;6.15;;;4.38;;
43345;SDS011;28937;51.160;4.146;2023-07-16T06:06:21;8.50;;;5.00;;
43345;SDS011;28937;51.160;4.146;2023-07-16T06:08:47;8.80;;;5.53;;
43345;SDS011;28937;51.160;4.146;2023-07-16T06:11:13;7.55;;;5.28;;
43345;SDS011;28937;51.160;4.146;2023-07-16T06:13:39;8.43;;;4.05;;
43345;SDS011;28937;51.160;4.146;2023-07-16T06:16:04;7.57;;;4.65;;
43345;SDS011;28937;51.160;4.146;2023-07-16T06:18:30;7.00;;;4.40;;
43345;SDS011;28937;51.160;4.146;2023-07-16T06:20:56;8.57;;;5.03;;
43345;SDS011;28937;51.160;4.146;2023-07-16T06:23:21;8.10;;;4.90;;
43345;SDS011;28937;51.160;4.146;2023-07-16T06:25:47;6.85;;;4.50;;
43345;SDS011;28937;51.160;4.146;2023-07-16T06:28:14;8.30;;;4.97;;
43345;SDS011;28937;51.160;4.146;2023-07-16T06:30:40;8.82;;;4.60;;
43345;SDS011;28937;51.160;4.146;2023-07-16T06:33:05;6.20;;;3.97;;
43345;SDS011;28937;51.160;4.146;2023-07-16T06:35:31;5.95;;;4.28;;
43345;SDS011;28937;51.160;4.146;2023-07-16T06:37:57;6.85;;;4.38;;
43345;SDS011;28937;51.160;4.146;2023-07-16T06:40:23;7.55;;;5.03;;
43345;SDS011;28937;51.160;4.146;2023-07-16T06:42:49;7.40;;;4.68;;
43345;SDS011;28937;51.160;4.146;2023-07-16T06:45:15;7.55;;;4.63;;
43345;SDS011;28937;51.160;4.146;2023-07-16T06:47:42;5.97;;;4.40;;
43345;SDS011;28937;51.160;4.146;2023-07-16T06:50:07;7.47;;;4.32;;
43345;SDS011;28937;51.160;4.146;2023-07-16T06:52:33;8.38;;;4.50;;
43345;SDS011;28937;51.160;4.146;2023-07-16T06:54:59;7.85;;;4.47;;
43345;SDS011;28937;51.160;4.146;2023-07-16T06:57:24;5.97;;;4.00;;
43345;SDS011;28937;51.160;4.146;2023-07-16T06:59:50;7.43;;;4.50;;
43345;SDS011;28937;51.160;4.146;2023-07-16T07:02:16;6.47;;;4.20;;
43345;SDS011;28937;51.160;4.146;2023-07-16T07:04:42;5.90;;;4.20;;
43345;SDS011;28937;51.160;4.146;2023-07-16T07:07:08;7.82;;;4.35;;
43345;SDS011;28937;51.160;4.146;2023-07-16T07:09:34;7.05;;;4.18;;
43345;SDS011;28937;51.160;4.146;2023-07-16T07:12:00;7.47;;;4.40;;
43345;SDS011;28937;51.160;4.146;2023-07-16T07:14:25;7.85;;;4.72;;
43345;SDS011;28937;51.160;4.146;2023-07-16T07:16:51;6.10;;;4.30;;
43345;SDS011;28937;51.160;4.146;2023-07-16T07:19:16;5.85;;;4.38;;
43345;SDS011;28937;51.160;4.146;2023-07-16T07:21:42;6.82;;;4.63;;
43345;SDS011;28937;51.160;4.146;2023-07-16T07:24:07;6.63;;;4.32;;
43345;SDS011;28937;51.160;4.146;2023-07-16T07:26:33;6.93;;;4.90;;
43345;SDS011;28937;51.160;4.146;2023-07-16T07:28:59;8.57;;;4.93;;
43345;SDS011;28937;51.160;4.146;2023-07-16T07:31:24;11.23;;;4.85;;
43345;SDS011;28937;51.160;4.146;2023-07-16T07:33:50;6.40;;;4.35;;
43345;SDS011;28937;51.160;4.146;2023-07-16T07:36:15;6.40;;;4.55;;
43345;SDS011;28937;51.160;4.146;2023-07-16T07:38:41;7.20;;;5.10;;
43345;SDS011;28937;51.160;4.146;2023-07-16T07:41:06;9.48;;;4.28;;
43345;SDS011;28937;51.160;4.146;2023-07-16T07:43:32;6.95;;;4.45;;
43345;SDS011;28937;51.160;4.146;2023-07-16T07:45:57;7.30;;;4.05;;
43345;SDS011;28937;51.160;4.146;2023-07-16T07:48:23;5.90;;;4.32;;
43345;SDS011;28937;51.160;4.146;2023-07-16T07:50:49;5.68;;;3.83;;
43345;SDS011;28937;51.160;4.146;2023-07-16T07:53:14;9.13;;;4.70;;
43345;SDS011;28937;51.160;4.146;2023-07-16T07:55:42;4.97;;;3.97;;
43345;SDS011;28937;51.160;4.146;2023-07-16T07:58:08;8.07;;;4.53;;
43345;SDS011;28937;51.160;4.146;2023-07-16T08:00:34;7.43;;;4.78;;
43345;SDS011;28937;51.160;4.146;2023-07-16T08:03:00;7.85;;;4.45;;
43345;SDS011;28937;51.160;4.146;2023-07-16T08:05:26;8.98;;;4.88;;
43345;SDS011;28937;51.160;4.146;2023-07-16T08:07:55;7.78;;;4.35;;
43345;SDS011;28937;51.160;4.146;2023-07-16T08:10:21;7.15;;;4.25;;
43345;SDS011;28937;51.160;4.146;2023-07-16T08:12:47;9.35;;;4.72;;
43345;SDS011;28937;51.160;4.146;2023-07-16T08:15:13;8.48;;;4.53;;
43345;SDS011;28937;51.160;4.146;2023-07-16T08:17:42;5.38;;;4.20;;
43345;SDS011;28937;51.160;4.146;2023-07-16T08:20:09;5.03;;;3.88;;
43345;SDS011;28937;51.160;4.146;2023-07-16T08:22:35;6.80;;;4.50;;
43345;SDS011;28937;51.160;4.146;2023-07-16T08:25:01;6.47;;;4.80;;
43345;SDS011;28937;51.160;4.146;2023-07-16T08:27:29;10.90;;;4.15;;
43345;SDS011;28937;51.160;4.146;2023-07-16T08:29:55;8.52;;;4.60;;
43345;SDS011;28937;51.160;4.146;2023-07-16T08:32:21;5.22;;;3.72;;
43345;SDS011;28937;51.160;4.146;2023-07-16T08:34:47;6.45;;;4.10;;
43345;SDS011;28937;51.160;4.146;2023-07-16T08:37:13;7.25;;;4.78;;
43345;SDS011;28937;51.160;4.146;2023-07-16T08:39:39;7.43;;;5.00;;
43345;SDS011;28937;51.160;4.146;2023-07-16T08:42:05;9.23;;;4.78;;
43345;SDS011;28937;51.160;4.146;2023-07-16T08:44:31;6.47;;;4.22;;
43345;SDS011;28937;51.160;4.146;2023-07-16T08:46:57;9.10;;;4.28;;
43345;SDS011;28937;51.160;4.146;2023-07-16T08:49:23;8.43;;;4.05;;
43345;SDS011;28937;51.160;4.146;2023-07-16T08:51:54;8.00;;;4.88;;
43345;SDS011;28937;51.160;4.146;2023-07-16T08:54:21;5.80;;;4.13;;
43345;SDS011;28937;51.160;4.146;2023-07-16T08:56:47;5.57;;;3.95;;
43345;SDS011;28937;51.160;4.146;2023-07-16T08:59:14;9.02;;;4.10;;
43345;SDS011;28937;51.160;4.146;2023-07-16T09:01:40;7.22;;;4.07;;
43345;SDS011;28937;51.160;4.146;2023-07-16T09:04:05;6.70;;;4.28;;
43345;SDS011;28937;51.160;4.146;2023-07-16T09:06:31;7.75;;;4.20;;
43345;SDS011;28937;51.160;4.146;2023-07-16T09:08:57;8.23;;;4.25;;
43345;SDS011;28937;51.160;4.146;2023-07-16T09:11:23;6.72;;;4.30;;
43345;SDS011;28937;51.160;4.146;2023-07-16T09:13:49;6.30;;;4.05;;
43345;SDS011;28937;51.160;4.146;2023-07-16T09:16:17;6.70;;;4.65;;
43345;SDS011;28937;51.160;4.146;2023-07-16T09:18:44;7.97;;;4.30;;
43345;SDS011;28937;51.160;4.146;2023-07-16T09:21:10;6.90;;;3.60;;
43345;SDS011;28937;51.160;4.146;2023-07-16T09:23:36;6.95;;;3.90;;
43345;SDS011;28937;51.160;4.146;2023-07-16T09:26:02;6.90;;;4.00;;
43345;SDS011;28937;51.160;4.146;2023-07-16T09:28:31;4.90;;;3.58;;
43345;SDS011;28937;51.160;4.146;2023-07-16T09:30:58;7.97;;;4.20;;
43345;SDS011;28937;51.160;4.146;2023-07-16T09:33:30;8.40;;;4.10;;
43345;SDS011;28937;51.160;4.146;2023-07-16T09:35:57;6.07;;;4.57;;
43345;SDS011;28937;51.160;4.146;2023-07-16T09:38:22;5.47;;;3.72;;
43345;SDS011;28937;51.160;4.146;2023-07-16T09:40:49;5.60;;;3.70;;
43345;SDS011;28937;51.160;4.146;2023-07-16T09:43:17;7.57;;;3.63;;
43345;SDS011;28937;51.160;4.146;2023-07-16T09:45:43;7.18;;;4.00;;
43345;SDS011;28937;51.160;4.146;2023-07-16T09:48:08;10.73;;;4.28;;
43345;SDS011;28937;51.160;4.146;2023-07-16T09:50:35;5.88;;;4.03;;
43345;SDS011;28937;51.160;4.146;2023-07-16T09:53:03;5.50;;;3.90;;
43345;SDS011;28937;51.160;4.146;2023-07-16T09:55:30;6.93;;;3.90;;
43345;SDS011;28937;51.160;4.146;2023-07-16T09:57:59;5.82;;;3.88;;
43345;SDS011;28937;51.160;4.146;2023-07-16T10:00:30;8.52;;;4.00;;
43345;SDS011;28937;51.160;4.146;2023-07-16T10:02:57;5.22;;;4.07;;
43345;SDS011;28937;51.160;4.146;2023-07-16T10:05:26;8.27;;;3.85;;
43345;SDS011;28937;51.160;4.146;2023-07-16T10:07:56;8.07;;;4.45;;
43345;SDS011;28937;51.160;4.146;2023-07-16T10:10:39;7.20;;;4.47;;
43345;SDS011;28937;51.160;4.146;2023-07-16T10:13:06;8.40;;;4.55;;
43345;SDS011;28937;51.160;4.146;2023-07-16T10:15:35;6.10;;;4.18;;
43345;SDS011;28937;51.160;4.146;2023-07-16T10:18:01;8.90;;;4.00;;
43345;SDS011;28937;51.160;4.146;2023-07-16T10:20:30;8.40;;;4.10;;
43345;SDS011;28937;51.160;4.146;2023-07-16T10:22:58;6.57;;;4.05;;
43345;SDS011;28937;51.160;4.146;2023-07-16T10:25:24;6.15;;;4.28;;
43345;SDS011;28937;51.160;4.146;2023-07-16T10:27:52;7.35;;;3.88;;
43345;SDS011;28937;51.160;4.146;2023-07-16T10:30:18;6.00;;;3.70;;
43345;SDS011;28937;51.160;4.146;2023-07-16T10:32:44;6.65;;;3.58;;
43345;SDS011;28937;51.160;4.146;2023-07-16T10:35:11;4.13;;;3.00;;
43345;SDS011;28937;51.160;4.146;2023-07-16T10:37:38;6.28;;;3.75;;
43345;SDS011;28937;51.160;4.146;2023-07-16T10:40:04;5.63;;;3.45;;
43345;SDS011;28937;51.160;4.146;2023-07-16T10:42:32;4.72;;;3.13;;
43345;SDS011;28937;51.160;4.146;2023-07-16T10:44:58;5.53;;;3.40;;
43345;SDS011;28937;51.160;4.146;2023-07-16T10:49:57;5.07;;;3.35;;
43345;SDS011;28937;51.160;4.146;2023-07-16T10:52:24;4.82;;;3.00;;
43345;SDS011;28937;51.160;4.146;2023-07-16T10:54:50;3.85;;;2.72;;
43345;SDS011;28937;51.160;4.146;2023-07-16T10:57:19;5.97;;;2.50;;
43345;SDS011;28937;51.160;4.146;2023-07-16T10:59:51;6.75;;;2.63;;
43345;SDS011;28937;51.160;4.146;2023-07-16T11:02:18;5.63;;;3.30;;
43345;SDS011;28937;51.160;4.146;2023-07-16T11:04:46;4.72;;;2.35;;
43345;SDS011;28937;51.160;4.146;2023-07-16T11:07:12;4.90;;;2.33;;
43345;SDS011;28937;51.160;4.146;2023-07-16T11:09:42;3.97;;;2.60;;
43345;SDS011;28937;51.160;4.146;2023-07-16T11:12:14;4.27;;;2.60;;
43345;SDS011;28937;51.160;4.146;2023-07-16T11:14:45;4.10;;;2.58;;
43345;SDS011;28937;51.160;4.146;2023-07-16T11:17:12;7.45;;;2.65;;
43345;SDS011;28937;51.160;4.146;2023-07-16T11:19:38;2.88;;;1.98;;
43345;SDS011;28937;51.160;4.146;2023-07-16T11:22:05;4.50;;;2.47;;
43345;SDS011;28937;51.160;4.146;2023-07-16T11:24:45;4.22;;;2.38;;
43345;SDS011;28937;51.160;4.146;2023-07-16T11:27:15;2.95;;;2.13;;
43345;SDS011;28937;51.160;4.146;2023-07-16T11:29:45;3.97;;;2.15;;
43345;SDS011;28937;51.160;4.146;2023-07-16T11:32:11;4.88;;;1.58;;
43345;SDS011;28937;51.160;4.146;2023-07-16T11:34:37;4.65;;;2.25;;
43345;SDS011;28937;51.160;4.146;2023-07-16T11:37:09;6.20;;;2.70;;
43345;SDS011;28937;51.160;4.146;2023-07-16T11:39:36;4.15;;;2.53;;
43345;SDS011;28937;51.160;4.146;2023-07-16T11:42:02;5.32;;;2.00;;
43345;SDS011;28937;51.160;4.146;2023-07-16T11:44:34;4.28;;;2.20;;
43345;SDS011;28937;51.160;4.146;2023-07-16T11:47:01;3.40;;;2.10;;
43345;SDS011;28937;51.160;4.146;2023-07-16T11:49:27;3.33;;;1.85;;
43345;SDS011;28937;51.160;4.146;2023-07-16T11:51:53;2.97;;;1.85;;
43345;SDS011;28937;51.160;4.146;2023-07-16T11:54:18;3.75;;;2.22;;
43345;SDS011;28937;51.160;4.146;2023-07-16T11:56:44;4.50;;;1.95;;
43345;SDS011;28937;51.160;4.146;2023-07-16T11:59:14;4.32;;;2.20;;
43345;SDS011;28937;51.160;4.146;2023-07-16T12:01:41;3.72;;;2.10;;
43345;SDS011;28937;51.160;4.146;2023-07-16T12:04:07;3.78;;;2.10;;
43345;SDS011;28937;51.160;4.146;2023-07-16T12:06:32;3.40;;;2.05;;
43345;SDS011;28937;51.160;4.146;2023-07-16T12:09:01;3.38;;;1.98;;
43345;SDS011;28937;51.160;4.146;2023-07-16T12:11:26;5.38;;;2.25;;
43345;SDS011;28937;51.160;4.146;2023-07-16T12:13:52;4.15;;;2.35;;
43345;SDS011;28937;51.160;4.146;2023-07-16T12:16:18;4.75;;;2.20;;
43345;SDS011;28937;51.160;4.146;2023-07-16T12:18:43;3.00;;;1.70;;
43345;SDS011;28937;51.160;4.146;2023-07-16T12:21:09;4.32;;;2.25;;
43345;SDS011;28937;51.160;4.146;2023-07-16T12:23:34;3.85;;;2.10;;
43345;SDS011;28937;51.160;4.146;2023-07-16T12:26:00;3.33;;;2.10;;
43345;SDS011;28937;51.160;4.146;2023-07-16T12:28:25;3.30;;;2.00;;
43345;SDS011;28937;51.160;4.146;2023-07-16T12:30:51;4.63;;;2.55;;
43345;SDS011;28937;51.160;4.146;2023-07-16T12:33:16;3.92;;;2.10;;
43345;SDS011;28937;51.160;4.146;2023-07-16T12:35:42;2.38;;;1.80;;
43345;SDS011;28937;51.160;4.146;2023-07-16T12:38:09;4.68;;;2.65;;
43345;SDS011;28937;51.160;4.146;2023-07-16T12:40:34;3.35;;;2.10;;
43345;SDS011;28937;51.160;4.146;2023-07-16T12:43:04;4.15;;;2.03;;
43345;SDS011;28937;51.160;4.146;2023-07-16T12:45:30;3.15;;;1.67;;
43345;SDS011;28937;51.160;4.146;2023-07-16T12:47:56;2.72;;;1.98;;
43345;SDS011;28937;51.160;4.146;2023-07-16T12:50:22;4.03;;;2.17;;
43345;SDS011;28937;51.160;4.146;2023-07-16T12:52:48;2.72;;;1.75;;
43345;SDS011;28937;51.160;4.146;2023-07-16T12:55:13;5.68;;;2.58;;
43345;SDS011;28937;51.160;4.146;2023-07-16T12:57:39;3.45;;;1.95;;
43345;SDS011;28937;51.160;4.146;2023-07-16T13:00:07;2.90;;;1.90;;
43345;SDS011;28937;51.160;4.146;2023-07-16T13:02:34;5.25;;;2.13;;
43345;SDS011;28937;51.160;4.146;2023-07-16T13:05:00;3.28;;;1.70;;
43345;SDS011;28937;51.160;4.146;2023-07-16T13:07:26;4.53;;;2.20;;
43345;SDS011;28937;51.160;4.146;2023-07-16T13:09:51;4.07;;;1.90;;
43345;SDS011;28937;51.160;4.146;2023-07-16T13:12:17;4.88;;;1.92;;
43345;SDS011;28937;51.160;4.146;2023-07-16T13:14:42;3.28;;;1.85;;
43345;SDS011;28937;51.160;4.146;2023-07-16T13:17:08;4.65;;;2.00;;
43345;SDS011;28937;51.160;4.146;2023-07-16T13:19:36;4.13;;;2.25;;
43345;SDS011;28937;51.160;4.146;2023-07-16T13:22:02;3.80;;;1.63;;
43345;SDS011;28937;51.160;4.146;2023-07-16T13:24:27;3.40;;;1.73;;
43345;SDS011;28937;51.160;4.146;2023-07-16T13:26:53;5.45;;;1.83;;
43345;SDS011;28937;51.160;4.146;2023-07-16T13:29:18;2.65;;;1.50;;
43345;SDS011;28937;51.160;4.146;2023-07-16T13:31:44;4.22;;;1.98;;
43345;SDS011;28937;51.160;4.146;2023-07-16T13:34:10;4.25;;;2.40;;
43345;SDS011;28937;51.160;4.146;2023-07-16T13:36:35;4.75;;;2.05;;
43345;SDS011;28937;51.160;4.146;2023-07-16T13:39:01;2.50;;;1.65;;
43345;SDS011;28937;51.160;4.146;2023-07-16T13:41:27;4.32;;;2.10;;
43345;SDS011;28937;51.160;4.146;2023-07-16T13:43:53;3.95;;;1.98;;
43345;SDS011;28937;51.160;4.146;2023-07-16T13:46:18;4.90;;;2.33;;
43345;SDS011;28937;51.160;4.146;2023-07-16T13:48:44;2.72;;;1.92;;
43345;SDS011;28937;51.160;4.146;2023-07-16T13:51:09;3.40;;;1.80;;
43345;SDS011;28937;51.160;4.146;2023-07-16T13:53:35;3.78;;;1.80;;
43345;SDS011;28937;51.160;4.146;2023-07-16T13:56:01;5.43;;;1.95;;
43345;SDS011;28937;51.160;4.146;2023-07-16T13:58:26;3.10;;;1.60;;
43345;SDS011;28937;51.160;4.146;2023-07-16T14:00:52;2.63;;;1.60;;
43345;SDS011;28937;51.160;4.146;2023-07-16T14:03:17;2.15;;;1.40;;
43345;SDS011;28937;51.160;4.146;2023-07-16T14:05:43;2.40;;;1.20;;
43345;SDS011;28937;51.160;4.146;2023-07-16T14:08:08;3.17;;;1.83;;
43345;SDS011;28937;51.160;4.146;2023-07-16T14:10:34;2.63;;;1.45;;
43345;SDS011;28937;51.160;4.146;2023-07-16T14:12:59;3.67;;;1.50;;
43345;SDS011;28937;51.160;4.146;2023-07-16T14:15:25;2.72;;;1.60;;
43345;SDS011;28937;51.160;4.146;2023-07-16T14:17:51;3.47;;;1.63;;
43345;SDS011;28937;51.160;4.146;2023-07-16T14:20:16;2.92;;;1.38;;
43345;SDS011;28937;51.160;4.146;2023-07-16T14:22:42;3.40;;;1.35;;
43345;SDS011;28937;51.160;4.146;2023-07-16T14:25:07;2.45;;;1.20;;
43345;SDS011;28937;51.160;4.146;2023-07-16T14:27:34;2.65;;;1.30;;
43345;SDS011;28937;51.160;4.146;2023-07-16T14:30:00;3.28;;;1.75;;
43345;SDS011;28937;51.160;4.146;2023-07-16T14:32:25;2.97;;;1.50;;
43345;SDS011;28937;51.160;4.146;2023-07-16T14:34:51;2.08;;;1.13;;
43345;SDS011;28937;51.160;4.146;2023-07-16T14:37:17;2.42;;;1.25;;
43345;SDS011;28937;51.160;4.146;2023-07-16T14:39:43;3.92;;;1.70;;
43345;SDS011;28937;51.160;4.146;2023-07-16T14:42:08;2.55;;;1.23;;
43345;SDS011;28937;51.160;4.146;2023-07-16T14:44:34;2.60;;;1.40;;
43345;SDS011;28937;51.160;4.146;2023-07-16T14:46:59;2.58;;;1.30;;
43345;SDS011;28937;51.160;4.146;2023-07-16T14:49:25;3.85;;;1.45;;